createdAt,value
2018-05-08T00:00:02.081Z,1000.6
2018-05-08T00:01:03.456Z,1000.6
2018-05-08T00:02:04.816Z,1000.6
2018-05-08T00:03:06.193Z,1000.6
2018-05-08T00:04:07.558Z,1000.6
2018-05-08T00:05:08.920Z,1000.6
2018-05-08T00:06:10.322Z,1000.6
2018-05-08T00:07:11.688Z,1000.6
2018-05-08T00:08:13.114Z,1000.5
2018-05-08T00:09:14.477Z,1000.5
2018-05-08T00:10:15.839Z,1000.6
2018-05-08T00:11:17.208Z,1000.5
2018-05-08T00:12:18.587Z,1000.5
2018-05-08T00:13:19.962Z,1000.5
2018-05-08T00:14:21.352Z,1000.5
2018-05-08T00:15:22.705Z,1000.5
2018-05-08T00:16:24.063Z,1000.6
2018-05-08T00:17:25.427Z,1000.5
2018-05-08T00:18:26.785Z,1000.5
2018-05-08T00:19:28.149Z,1000.5
2018-05-08T00:20:29.519Z,1000.5
2018-05-08T00:21:30.890Z,1000.5
2018-05-08T00:22:32.251Z,1000.5
2018-05-08T00:23:33.622Z,1000.5
2018-05-08T00:24:34.983Z,1000.5
2018-05-08T00:25:36.362Z,1000.5
2018-05-08T00:26:37.752Z,1000.5
2018-05-08T00:27:39.112Z,1000.5
2018-05-08T00:28:40.479Z,1000.4
2018-05-08T00:29:41.864Z,1000.5
2018-05-08T00:30:43.220Z,1000.4
2018-05-08T00:31:44.588Z,1000.4
2018-05-08T00:32:45.954Z,1000.4
2018-05-08T00:33:47.322Z,1000.4
2018-05-08T00:34:48.680Z,1000.4
2018-05-08T00:35:50.043Z,1000.4
2018-05-08T00:36:51.405Z,1000.3
2018-05-08T00:37:52.766Z,1000.4
2018-05-08T00:38:54.120Z,1000.4
2018-05-08T00:39:55.481Z,1000.3
2018-05-08T00:40:56.846Z,1000.4
2018-05-08T00:41:58.206Z,1000.4
2018-05-08T00:42:59.575Z,1000.3
2018-05-08T00:44:00.926Z,1000.3
2018-05-08T00:45:02.287Z,1000.3
2018-05-08T00:46:03.639Z,1000.3
2018-05-08T00:47:05.009Z,1000.3
2018-05-08T00:48:06.366Z,1000.3
2018-05-08T00:49:07.727Z,1000.3
2018-05-08T00:50:09.103Z,1000.3
2018-05-08T00:51:10.472Z,1000.3
2018-05-08T00:52:11.840Z,1000.3
2018-05-08T00:53:13.204Z,1000.3
2018-05-08T00:54:14.564Z,1000.3
2018-05-08T00:55:15.915Z,1000.3
2018-05-08T00:56:17.276Z,1000.2
2018-05-08T00:57:18.651Z,1000.3
2018-05-08T00:58:20.001Z,1000.3
2018-05-08T00:59:21.370Z,1000.3
2018-05-08T01:00:22.719Z,1000.3
2018-05-08T01:01:24.080Z,1000.3
2018-05-08T01:02:25.435Z,1000.2
2018-05-08T01:03:26.798Z,1000.2
2018-05-08T01:04:28.149Z,1000.2
2018-05-08T01:05:29.504Z,1000.2
2018-05-08T01:06:30.869Z,1000.2
2018-05-08T01:07:32.303Z,1000.2
2018-05-08T01:08:33.600Z,1000.1
2018-05-08T01:09:34.961Z,1000.2
2018-05-08T01:10:36.325Z,1000.2
2018-05-08T01:11:37.768Z,1000.2
2018-05-08T01:12:39.036Z,1000.2
2018-05-08T01:13:40.395Z,1000.2
2018-05-08T01:14:41.752Z,1000.2
2018-05-08T01:15:43.116Z,1000.2
2018-05-08T01:16:44.492Z,1000.1
2018-05-08T01:17:45.852Z,1000.2
2018-05-08T01:18:47.215Z,1000.2
2018-05-08T01:19:48.583Z,1000.2
2018-05-08T01:20:49.948Z,1000.3
2018-05-08T01:21:51.416Z,1000.2
2018-05-08T01:22:52.777Z,1000.2
2018-05-08T01:23:54.137Z,1000.2
2018-05-08T01:24:55.501Z,1000.2
2018-05-08T01:26:00.338Z,1000.2
2018-05-08T01:27:01.699Z,1000.2
2018-05-08T01:28:03.099Z,1000.2
2018-05-08T01:29:04.466Z,1000.1
2018-05-08T01:30:05.819Z,1000.1
2018-05-08T01:31:07.184Z,1000.1
2018-05-08T01:32:08.550Z,1000.1
2018-05-08T01:33:09.905Z,1000.1
2018-05-08T01:34:11.266Z,1000.1
2018-05-08T01:35:12.629Z,1000.1
2018-05-08T01:36:14.001Z,1000.1
2018-05-08T01:37:15.357Z,1000.1
2018-05-08T01:38:16.716Z,1000.1
2018-05-08T01:39:18.076Z,1000.1
2018-05-08T01:40:19.437Z,1000.0
2018-05-08T01:41:20.812Z,1000.1
2018-05-08T01:42:22.172Z,1000.1
2018-05-08T01:43:23.530Z,1000.0
2018-05-08T01:44:24.884Z,1000.0
2018-05-08T01:45:26.251Z,1000.0
2018-05-08T01:46:27.609Z,1000.0
2018-05-08T01:47:28.979Z,1000.0
2018-05-08T01:48:30.338Z,1000.1
2018-05-08T01:49:31.708Z,1000.0
2018-05-08T01:50:33.086Z,1000.0
2018-05-08T01:51:34.443Z,1000.0
2018-05-08T01:52:35.821Z,1000.0
2018-05-08T01:53:37.183Z,1000.0
2018-05-08T01:54:38.545Z,1000.0
2018-05-08T01:55:39.913Z,1000.0
2018-05-08T01:56:41.273Z,1000.0
2018-05-08T01:57:42.629Z,999.9
2018-05-08T01:58:43.987Z,1000.0
2018-05-08T01:59:45.338Z,1000.0
2018-05-08T02:00:46.700Z,1000.0
2018-05-08T02:01:48.064Z,999.9
2018-05-08T02:03:01.080Z,999.9
2018-05-08T02:04:02.449Z,999.9
2018-05-08T02:05:03.816Z,999.8
2018-05-08T02:06:05.176Z,999.8
2018-05-08T02:07:06.536Z,999.8
2018-05-08T02:08:07.900Z,999.8
2018-05-08T02:09:09.253Z,999.7
2018-05-08T02:10:10.611Z,999.8
2018-05-08T02:11:11.967Z,999.7
2018-05-08T02:12:13.333Z,999.7
2018-05-08T02:13:14.688Z,999.7
2018-05-08T02:14:16.078Z,999.7
2018-05-08T02:15:17.441Z,999.8
2018-05-08T02:16:18.804Z,999.7
2018-05-08T02:17:20.156Z,999.7
2018-05-08T02:18:21.512Z,999.7
2018-05-08T02:19:22.875Z,999.7
2018-05-08T02:20:24.223Z,999.7
2018-05-08T02:21:25.578Z,999.7
2018-05-08T02:22:26.937Z,999.7
2018-05-08T02:23:28.299Z,999.6
2018-05-08T02:24:29.653Z,999.7
2018-05-08T02:25:31.019Z,999.6
2018-05-08T02:26:32.381Z,999.7
2018-05-08T02:27:33.742Z,999.6
2018-05-08T02:28:35.099Z,999.7
2018-05-08T02:29:36.456Z,999.6
2018-05-08T02:30:37.818Z,999.6
2018-05-08T02:31:39.174Z,999.6
2018-05-08T02:32:40.533Z,999.7
2018-05-08T02:33:41.898Z,999.7
2018-05-08T02:34:43.257Z,999.6
2018-05-08T02:35:44.611Z,999.6
2018-05-08T02:36:45.983Z,999.5
2018-05-08T02:37:47.348Z,999.5
2018-05-08T02:38:48.701Z,999.5
2018-05-08T02:39:50.055Z,999.5
2018-05-08T02:40:51.413Z,999.4
2018-05-08T02:41:52.775Z,999.5
2018-05-08T02:42:54.130Z,999.4
2018-05-08T02:43:55.500Z,999.4
2018-05-08T02:44:56.855Z,999.4
2018-05-08T02:45:58.209Z,999.5
2018-05-08T02:46:59.567Z,999.5
2018-05-08T02:48:00.925Z,999.4
2018-05-08T02:49:02.277Z,999.4
2018-05-08T02:50:03.631Z,999.4
2018-05-08T02:51:05.000Z,999.5
2018-05-08T02:52:06.358Z,999.4
2018-05-08T02:53:07.711Z,999.4
2018-05-08T02:54:09.055Z,999.4
2018-05-08T02:55:10.415Z,999.4
2018-05-08T02:56:11.771Z,999.4
2018-05-08T02:57:13.139Z,999.4
2018-05-08T02:58:14.500Z,999.4
2018-05-08T02:59:15.862Z,999.4
2018-05-08T03:00:17.213Z,999.4
2018-05-08T03:01:18.615Z,999.4
2018-05-08T03:02:19.970Z,999.4
2018-05-08T03:03:21.353Z,999.4
2018-05-08T03:04:22.715Z,999.4
2018-05-08T03:05:24.079Z,999.4
2018-05-08T03:06:25.428Z,999.4
2018-05-08T03:07:26.781Z,999.4
2018-05-08T03:08:28.145Z,999.4
2018-05-08T03:09:29.497Z,999.4
2018-05-08T03:10:30.854Z,999.4
2018-05-08T03:11:32.212Z,999.4
2018-05-08T03:12:33.575Z,999.4
2018-05-08T03:13:34.935Z,999.4
2018-05-08T03:14:36.304Z,999.4
2018-05-08T03:15:37.667Z,999.4
2018-05-08T03:16:39.023Z,999.4
2018-05-08T03:17:40.396Z,999.4
2018-05-08T03:18:41.750Z,999.4
2018-05-08T03:19:43.109Z,999.4
2018-05-08T03:20:44.480Z,999.3
2018-05-08T03:21:45.839Z,999.4
2018-05-08T03:22:47.196Z,999.4
2018-05-08T03:23:48.554Z,999.3
2018-05-08T03:24:49.926Z,999.4
2018-05-08T03:25:51.285Z,999.3
2018-05-08T03:26:52.641Z,999.3
2018-05-08T03:27:54.009Z,999.3
2018-05-08T03:28:55.371Z,999.3
2018-05-08T03:29:56.728Z,999.3
2018-05-08T03:30:58.092Z,999.4
2018-05-08T03:31:59.453Z,999.3
2018-05-08T03:33:00.808Z,999.3
2018-05-08T03:34:02.171Z,999.3
2018-05-08T03:35:03.529Z,999.3
2018-05-08T03:36:04.898Z,999.4
2018-05-08T03:37:06.261Z,999.3
2018-05-08T03:38:07.607Z,999.3
2018-05-08T03:39:08.968Z,999.3
2018-05-08T03:40:10.327Z,999.3
2018-05-08T03:41:11.689Z,999.3
2018-05-08T03:42:13.052Z,999.3
2018-05-08T03:43:14.419Z,999.4
2018-05-08T03:44:15.777Z,999.3
2018-05-08T03:45:17.137Z,999.3
2018-05-08T03:46:18.489Z,999.3
2018-05-08T03:47:19.847Z,999.4
2018-05-08T03:48:21.210Z,999.3
2018-05-08T03:49:22.581Z,999.4
2018-05-08T03:50:23.943Z,999.4
2018-05-08T03:51:25.306Z,999.4
2018-05-08T03:52:26.666Z,999.4
2018-05-08T03:53:28.018Z,999.4
2018-05-08T03:54:29.388Z,999.4
2018-05-08T03:55:30.745Z,999.3
2018-05-08T03:56:32.119Z,999.4
2018-05-08T03:57:33.470Z,999.4
2018-05-08T03:58:34.843Z,999.4
2018-05-08T03:59:36.199Z,999.3
2018-05-08T04:00:37.559Z,999.4
2018-05-08T04:01:38.927Z,999.4
2018-05-08T04:02:40.289Z,999.4
2018-05-08T04:03:41.662Z,999.4
2018-05-08T04:04:43.025Z,999.4
2018-05-08T04:05:44.373Z,999.4
2018-05-08T04:06:45.735Z,999.4
2018-05-08T04:07:47.106Z,999.5
2018-05-08T04:08:48.471Z,999.5
2018-05-08T04:09:49.832Z,999.5
2018-05-08T04:10:51.252Z,999.4
2018-05-08T04:11:52.627Z,999.5
2018-05-08T04:12:53.983Z,999.5
2018-05-08T04:13:55.340Z,999.5
2018-05-08T04:14:56.708Z,999.5
2018-05-08T04:15:58.105Z,999.5
2018-05-08T04:16:59.464Z,999.5
2018-05-08T04:18:00.829Z,999.5
2018-05-08T04:19:02.194Z,999.5
2018-05-08T04:20:03.556Z,999.5
2018-05-08T04:21:04.949Z,999.5
2018-05-08T04:22:06.290Z,999.5
2018-05-08T04:23:07.657Z,999.5
2018-05-08T04:24:09.013Z,999.5
2018-05-08T04:25:10.384Z,999.5
2018-05-08T04:26:11.738Z,999.5
2018-05-08T04:27:13.101Z,999.6
2018-05-08T04:28:14.457Z,999.6
2018-05-08T04:29:15.814Z,999.6
2018-05-08T04:30:17.180Z,999.6
2018-05-08T04:31:18.547Z,999.6
2018-05-08T04:32:19.908Z,999.6
2018-05-08T04:33:21.267Z,999.5
2018-05-08T04:34:22.630Z,999.6
2018-05-08T04:35:24.015Z,999.6
2018-05-08T04:36:25.395Z,999.6
2018-05-08T04:37:26.764Z,999.6
2018-05-08T04:38:28.134Z,999.5
2018-05-08T04:39:29.502Z,999.6
2018-05-08T04:40:30.859Z,999.6
2018-05-08T04:41:32.227Z,999.6
2018-05-08T04:42:33.616Z,999.6
2018-05-08T04:43:34.978Z,999.6
2018-05-08T04:44:36.341Z,999.6
2018-05-08T04:45:37.752Z,999.5
2018-05-08T04:46:39.135Z,999.6
2018-05-08T04:47:40.493Z,999.6
2018-05-08T04:48:41.856Z,999.5
2018-05-08T04:49:43.220Z,999.6
2018-05-08T04:50:44.591Z,999.6
2018-05-08T04:51:45.957Z,999.6
2018-05-08T04:52:47.317Z,999.7
2018-05-08T04:53:48.690Z,999.6
2018-05-08T04:54:50.052Z,999.6
2018-05-08T04:55:51.514Z,999.6
2018-05-08T04:56:52.790Z,999.6
2018-05-08T04:57:54.156Z,999.6
2018-05-08T04:58:55.518Z,999.6
2018-05-08T04:59:56.886Z,999.6
2018-05-08T05:00:58.238Z,999.6
2018-05-08T05:02:00.188Z,999.7
2018-05-08T05:03:01.545Z,999.7
2018-05-08T05:04:02.908Z,999.7
2018-05-08T05:05:04.278Z,999.7
2018-05-08T05:06:05.665Z,999.7
2018-05-08T05:07:07.050Z,999.7
2018-05-08T05:08:08.429Z,999.7
2018-05-08T05:09:09.786Z,999.7
2018-05-08T05:10:11.150Z,999.7
2018-05-08T05:11:12.550Z,999.6
2018-05-08T05:12:13.889Z,999.6
2018-05-08T05:13:15.256Z,999.7
2018-05-08T05:14:16.614Z,999.7
2018-05-08T05:15:17.978Z,999.7
2018-05-08T05:16:19.337Z,999.7
2018-05-08T05:17:20.696Z,999.6
2018-05-08T05:18:22.062Z,999.6
2018-05-08T05:19:23.427Z,999.6
2018-05-08T05:20:24.786Z,999.6
2018-05-08T05:21:26.155Z,999.6
2018-05-08T05:22:27.516Z,999.7
2018-05-08T05:23:28.873Z,999.6
2018-05-08T05:24:30.323Z,999.7
2018-05-08T05:25:31.564Z,999.7
2018-05-08T05:26:32.918Z,999.6
2018-05-08T05:27:34.275Z,999.7
2018-05-08T05:28:35.673Z,999.6
2018-05-08T05:29:37.105Z,999.6
2018-05-08T05:30:38.469Z,999.7
2018-05-08T05:31:39.905Z,999.6
2018-05-08T05:32:41.196Z,999.6
2018-05-08T05:33:42.575Z,999.6
2018-05-08T05:34:43.970Z,999.6
2018-05-08T05:35:45.335Z,999.6
2018-05-08T05:36:46.698Z,999.6
2018-05-08T05:37:48.072Z,999.6
2018-05-08T05:38:49.432Z,999.7
2018-05-08T05:39:50.792Z,999.6
2018-05-08T05:40:52.156Z,999.7
2018-05-08T05:41:53.614Z,999.6
2018-05-08T05:42:54.885Z,999.6
2018-05-08T05:43:56.257Z,999.7
2018-05-08T05:44:57.616Z,999.6
2018-05-08T05:45:58.980Z,999.7
2018-05-08T05:47:00.345Z,999.7
2018-05-08T05:48:01.706Z,999.7
2018-05-08T05:49:03.070Z,999.7
2018-05-08T05:50:04.439Z,999.7
2018-05-08T05:51:05.803Z,999.7
2018-05-08T05:52:07.168Z,999.7
2018-05-08T05:53:08.528Z,999.8
2018-05-08T05:54:09.918Z,999.7
2018-05-08T05:55:11.295Z,999.7
2018-05-08T05:56:12.660Z,999.7
2018-05-08T05:57:14.032Z,999.9
2018-05-08T05:58:15.420Z,1000.0
2018-05-08T05:59:16.782Z,1000.1
2018-05-08T06:00:18.153Z,1000.0
2018-05-08T06:01:19.541Z,1000.0
2018-05-08T06:02:20.916Z,1000.0
2018-05-08T06:03:22.287Z,1000.1
2018-05-08T06:04:23.648Z,1000.0
2018-05-08T06:05:25.017Z,1000.1
2018-05-08T06:06:26.445Z,999.9
2018-05-08T06:07:27.771Z,1000.0
2018-05-08T06:08:29.170Z,1000.0
2018-05-08T06:09:30.529Z,1000.1
2018-05-08T06:10:31.896Z,1000.0
2018-05-08T06:11:33.299Z,1000.0
2018-05-08T06:12:34.671Z,999.9
2018-05-08T06:13:36.049Z,999.9
2018-05-08T06:14:37.414Z,1000.0
2018-05-08T06:15:38.839Z,1000.0
2018-05-08T06:16:40.207Z,1000.0
2018-05-08T06:17:41.583Z,1000.0
2018-05-08T06:18:42.963Z,999.9
2018-05-08T06:19:44.343Z,1000.0
2018-05-08T06:20:45.834Z,1000.0
2018-05-08T06:21:47.212Z,1000.0
2018-05-08T06:22:48.574Z,1000.0
2018-05-08T06:23:49.965Z,1000.0
2018-05-08T06:24:51.342Z,1000.0
2018-05-08T06:25:52.721Z,1000.0
2018-05-08T06:26:54.098Z,1000.0
2018-05-08T06:27:55.463Z,1000.0
2018-05-08T06:28:56.866Z,1000.1
2018-05-08T06:29:58.419Z,1000.1
2018-05-08T06:30:59.799Z,1000.1
2018-05-08T06:32:01.186Z,1000.1
2018-05-08T06:33:02.563Z,1000.0
2018-05-08T06:34:03.945Z,1000.0
2018-05-08T06:35:05.317Z,1000.1
2018-05-08T06:36:06.695Z,999.9
2018-05-08T06:37:08.080Z,1000.0
2018-05-08T06:38:09.468Z,1000.1
2018-05-08T06:39:10.866Z,1000.2
2018-05-08T06:40:12.182Z,1000.1
2018-05-08T06:41:13.567Z,1000.2
2018-05-08T06:42:14.939Z,1000.1
2018-05-08T06:43:16.310Z,1000.2
2018-05-08T06:44:17.692Z,1000.2
2018-05-08T06:45:19.062Z,1000.2
2018-05-08T06:46:20.453Z,1000.2
2018-05-08T06:47:21.832Z,1000.2
2018-05-08T06:48:23.220Z,1000.1
2018-05-08T06:49:24.598Z,1000.2
2018-05-08T06:50:25.966Z,1000.1
2018-05-08T06:51:27.390Z,1000.2
2018-05-08T06:52:29.062Z,1000.1
2018-05-08T06:53:30.449Z,1000.2
2018-05-08T06:54:31.833Z,1000.1
2018-05-08T06:55:33.210Z,1000.2
2018-05-08T06:56:34.584Z,1000.2
2018-05-08T06:57:35.960Z,1000.1
2018-05-08T06:58:37.348Z,1000.1
2018-05-08T06:59:38.726Z,1000.2
2018-05-08T07:00:40.108Z,1000.1
2018-05-08T07:01:41.485Z,1000.2
2018-05-08T07:02:42.868Z,1000.2
2018-05-08T07:03:44.241Z,1000.2
2018-05-08T07:04:45.626Z,1000.2
2018-05-08T07:05:47.010Z,1000.2
2018-05-08T07:06:48.385Z,1000.2
2018-05-08T07:07:49.774Z,1000.3
2018-05-08T07:08:51.153Z,1000.3
2018-05-08T07:09:52.535Z,1000.3
2018-05-08T07:10:53.906Z,1000.1
2018-05-08T07:11:55.278Z,1000.1
2018-05-08T07:12:56.672Z,1000.2
2018-05-08T07:13:58.048Z,1000.2
2018-05-08T07:14:59.433Z,1000.2
2018-05-08T07:16:00.909Z,1000.2
2018-05-08T07:17:02.209Z,1000.2
2018-05-08T07:18:03.585Z,1000.1
2018-05-08T07:19:04.976Z,1000.0
2018-05-08T07:20:07.976Z,1000.1
2018-05-08T07:21:09.365Z,1000.1
2018-05-08T07:22:10.797Z,1000.2
2018-05-08T07:23:12.170Z,1000.1
2018-05-08T07:24:13.598Z,1000.2
2018-05-08T07:25:14.972Z,1000.2
2018-05-08T07:26:16.401Z,1000.3
2018-05-08T07:27:17.771Z,1000.3
2018-05-08T07:28:19.238Z,1000.2
2018-05-08T07:29:20.624Z,1000.4
2018-05-08T07:30:22.053Z,1000.4
2018-05-08T07:31:23.437Z,1000.3
2018-05-08T07:32:24.893Z,1000.4
2018-05-08T07:33:26.257Z,1000.3
2018-05-08T07:34:27.701Z,1000.4
2018-05-08T07:35:29.089Z,1000.6
2018-05-08T07:36:30.465Z,1000.7
2018-05-08T07:37:31.843Z,1000.8
2018-05-08T07:38:33.223Z,1000.8
2018-05-08T07:39:34.725Z,1000.8
2018-05-08T07:40:36.302Z,1000.9
2018-05-08T07:41:37.707Z,1000.8
2018-05-08T07:42:39.074Z,1001.1
2018-05-08T07:43:40.497Z,1000.9
2018-05-08T07:44:41.876Z,1001.0
2018-05-08T07:45:43.256Z,1001.2
2018-05-08T07:46:44.638Z,1001.2
2018-05-08T07:47:46.013Z,1001.2
2018-05-08T07:48:47.449Z,1001.4
2018-05-08T07:49:48.826Z,1001.5
2018-05-08T07:50:50.223Z,1001.4
2018-05-08T07:51:51.663Z,1001.4
2018-05-08T07:52:52.992Z,1001.6
2018-05-08T07:53:54.366Z,1001.6
2018-05-08T07:54:55.748Z,1001.5
2018-05-08T07:55:57.182Z,1001.7
2018-05-08T07:56:58.559Z,1001.7
2018-05-08T07:57:59.943Z,1001.8
2018-05-08T07:59:01.330Z,1001.9
2018-05-08T08:00:02.712Z,1002.0
2018-05-08T08:01:04.138Z,1002.2
2018-05-08T08:02:06.430Z,1002.2
2018-05-08T08:03:07.819Z,1002.1
2018-05-08T08:04:09.196Z,1002.1
2018-05-08T08:05:10.582Z,1002.0
2018-05-08T08:06:11.958Z,1002.0
2018-05-08T08:07:13.340Z,1002.0
2018-05-08T08:08:14.735Z,1002.0
2018-05-08T08:09:16.115Z,1002.1
2018-05-08T08:10:17.490Z,1002.1
2018-05-08T08:11:18.874Z,1002.3
2018-05-08T08:12:20.268Z,1002.2
2018-05-08T08:13:21.615Z,1002.2
2018-05-08T08:14:22.993Z,1002.2
2018-05-08T08:15:24.371Z,1002.3
2018-05-08T08:16:25.771Z,1002.1
2018-05-08T08:17:27.142Z,1002.2
2018-05-08T08:18:28.575Z,1002.0
2018-05-08T08:19:29.921Z,1002.1
2018-05-08T08:20:31.310Z,1002.0
2018-05-08T08:21:32.705Z,1002.1
2018-05-08T08:22:34.083Z,1002.0
2018-05-08T08:23:36.352Z,1002.0
2018-05-08T08:24:37.733Z,1001.9
2018-05-08T08:25:39.113Z,1002.0
2018-05-08T08:26:40.523Z,1001.9
2018-05-08T08:27:41.910Z,1001.8
2018-05-08T08:28:43.292Z,1001.7
2018-05-08T08:29:44.758Z,1001.9
2018-05-08T08:30:46.098Z,1001.7
2018-05-08T08:31:47.485Z,1001.7
2018-05-08T08:32:48.871Z,1001.7
2018-05-08T08:33:50.259Z,1001.7
2018-05-08T08:34:51.638Z,1001.9
2018-05-08T08:35:53.023Z,1001.8
2018-05-08T08:36:54.405Z,1002.0
2018-05-08T08:37:55.784Z,1001.8
2018-05-08T08:38:57.170Z,1001.9
2018-05-08T08:39:58.559Z,1001.8
2018-05-08T08:40:59.951Z,1001.9
2018-05-08T08:42:01.331Z,1001.8
2018-05-08T08:43:02.721Z,1001.9
2018-05-08T08:44:04.087Z,1001.9
2018-05-08T08:45:05.472Z,1002.1
2018-05-08T08:46:06.842Z,1002.2
2018-05-08T08:47:08.236Z,1002.1
2018-05-08T08:48:09.637Z,1002.2
2018-05-08T08:49:11.054Z,1002.0
2018-05-08T08:50:12.440Z,1002.0
2018-05-08T08:51:13.823Z,1002.0
2018-05-08T08:52:15.227Z,1002.0
2018-05-08T08:53:16.618Z,1002.0
2018-05-08T08:54:17.985Z,1002.1
2018-05-08T08:55:19.491Z,1002.0
2018-05-08T08:56:20.873Z,1002.1
2018-05-08T08:57:22.258Z,1002.0
2018-05-08T08:58:23.630Z,1001.9
2018-05-08T08:59:25.024Z,1002.2
2018-05-08T09:00:26.403Z,1002.0
2018-05-08T09:01:27.785Z,1002.0
2018-05-08T09:02:29.172Z,1001.9
2018-05-08T09:03:30.562Z,1001.6
2018-05-08T09:04:31.942Z,1001.4
2018-05-08T09:05:33.293Z,1001.3
2018-05-08T09:06:34.682Z,1001.2
2018-05-08T09:07:36.061Z,1001.1
2018-05-08T09:08:37.464Z,1000.9
2018-05-08T09:09:38.845Z,1000.6
2018-05-08T09:10:40.239Z,1000.5
2018-05-08T09:11:41.628Z,1000.4
2018-05-08T09:12:43.019Z,1000.3
2018-05-08T09:13:44.598Z,1000.2
2018-05-08T09:14:45.980Z,1000.1
2018-05-08T09:15:47.383Z,1000.2
2018-05-08T09:16:48.802Z,1000.1
2018-05-08T09:17:50.187Z,999.9
2018-05-08T09:18:51.574Z,1000.0
2018-05-08T09:19:52.966Z,1000.1
2018-05-08T09:20:54.354Z,999.7
2018-05-08T09:21:55.747Z,999.8
2018-05-08T09:22:57.128Z,999.8
2018-05-08T09:23:58.526Z,1000.0
2018-05-08T09:24:59.919Z,999.9
2018-05-08T09:26:01.303Z,999.8
2018-05-08T09:27:02.677Z,999.7
2018-05-08T09:28:04.062Z,999.6
2018-05-08T09:29:05.444Z,999.7
2018-05-08T09:30:06.826Z,999.8
2018-05-08T09:31:08.321Z,999.7
2018-05-08T09:32:09.719Z,999.7
2018-05-08T09:33:11.120Z,999.6
2018-05-08T09:34:12.503Z,999.5
2018-05-08T09:35:13.887Z,999.5
2018-05-08T09:36:15.275Z,999.4
2018-05-08T09:37:16.654Z,999.4
2018-05-08T09:38:18.046Z,999.4
2018-05-08T09:39:19.434Z,999.4
2018-05-08T09:40:20.821Z,999.5
2018-05-08T09:41:22.205Z,999.4
2018-05-08T09:42:23.597Z,999.4
2018-05-08T09:43:24.980Z,999.4
2018-05-08T09:44:26.382Z,999.4
2018-05-08T09:45:27.778Z,999.3
2018-05-08T09:46:29.180Z,999.4
2018-05-08T09:47:30.645Z,999.4
2018-05-08T09:48:32.025Z,999.4
2018-05-08T09:49:33.413Z,999.3
2018-05-08T09:50:34.801Z,999.4
2018-05-08T09:51:36.317Z,999.5
2018-05-08T09:52:37.699Z,999.4
2018-05-08T09:53:39.078Z,999.4
2018-05-08T09:54:40.480Z,999.4
2018-05-08T09:55:41.851Z,999.4
2018-05-08T09:56:43.244Z,999.2
2018-05-08T09:57:44.623Z,999.1
2018-05-08T09:58:46.003Z,999.0
2018-05-08T09:59:47.404Z,999.1
2018-05-08T10:00:48.779Z,999.2
2018-05-08T10:01:50.168Z,999.2
2018-05-08T10:02:51.544Z,999.0
2018-05-08T10:03:52.931Z,999.0
2018-05-08T10:04:54.318Z,999.1
2018-05-08T10:05:55.711Z,999.1
2018-05-08T10:06:57.107Z,998.9
2018-05-08T10:07:58.494Z,999.0
2018-05-08T10:08:59.879Z,998.9
2018-05-08T10:10:01.269Z,999.0
2018-05-08T10:11:02.662Z,999.0
2018-05-08T10:12:04.041Z,998.9
2018-05-08T10:13:05.434Z,998.9
2018-05-08T10:14:06.821Z,998.9
2018-05-08T10:15:08.232Z,999.0
2018-05-08T10:16:09.612Z,998.9
2018-05-08T10:17:11.008Z,999.0
2018-05-08T10:18:12.387Z,998.9
2018-05-08T10:19:13.782Z,998.9
2018-05-08T10:20:15.177Z,998.9
2018-05-08T10:21:16.661Z,998.9
2018-05-08T10:22:18.056Z,999.0
2018-05-08T10:23:19.441Z,998.8
2018-05-08T10:24:20.824Z,998.7
2018-05-08T10:25:22.209Z,998.9
2018-05-08T10:26:23.609Z,998.8
2018-05-08T10:27:24.989Z,998.7
2018-05-08T10:28:26.402Z,998.7
2018-05-08T10:29:27.778Z,998.6
2018-05-08T10:30:29.155Z,998.8
2018-05-08T10:31:30.547Z,998.7
2018-05-08T10:32:31.924Z,998.7
2018-05-08T10:33:33.484Z,998.6
2018-05-08T10:34:34.812Z,998.6
2018-05-08T10:35:36.244Z,998.6
2018-05-08T10:36:37.637Z,998.6
2018-05-08T10:37:39.024Z,998.6
2018-05-08T10:38:40.424Z,998.7
2018-05-08T10:39:41.836Z,998.6
2018-05-08T10:40:43.227Z,998.8
2018-05-08T10:41:44.627Z,998.9
2018-05-08T10:42:46.049Z,998.5
2018-05-08T10:43:47.476Z,998.5
2018-05-08T10:44:48.795Z,998.4
2018-05-08T10:45:50.196Z,998.4
2018-05-08T10:46:51.620Z,998.5
2018-05-08T10:47:53.022Z,998.3
2018-05-08T10:48:54.425Z,998.4
2018-05-08T10:49:55.810Z,998.4
2018-05-08T10:50:57.239Z,998.4
2018-05-08T10:51:58.628Z,998.5
2018-05-08T10:53:00.003Z,998.4
2018-05-08T10:54:01.385Z,998.5
2018-05-08T10:55:02.790Z,998.3
2018-05-08T10:56:04.176Z,998.3
2018-05-08T10:57:05.563Z,998.1
2018-05-08T10:58:06.959Z,998.3
2018-05-08T10:59:08.359Z,998.3
2018-05-08T11:00:10.027Z,998.3
2018-05-08T11:01:11.401Z,998.3
2018-05-08T11:02:12.791Z,998.2
2018-05-08T11:03:14.190Z,998.2
2018-05-08T11:04:15.575Z,998.2
2018-05-08T11:05:16.973Z,998.2
2018-05-08T11:06:18.490Z,998.2
2018-05-08T11:07:19.895Z,998.2
2018-05-08T11:08:21.298Z,998.1
2018-05-08T11:09:22.685Z,998.0
2018-05-08T11:10:24.067Z,998.1
2018-05-08T11:11:25.462Z,997.9
2018-05-08T11:12:26.945Z,998.0
2018-05-08T11:13:28.200Z,998.1
2018-05-08T11:14:29.586Z,998.2
2018-05-08T11:15:30.977Z,998.2
2018-05-08T11:16:32.369Z,998.1
2018-05-08T11:17:33.763Z,998.0
2018-05-08T11:18:35.158Z,998.1
2018-05-08T11:19:36.579Z,997.9
2018-05-08T11:20:37.970Z,998.0
2018-05-08T11:21:39.407Z,998.0
2018-05-08T11:22:40.790Z,997.8
2018-05-08T11:23:42.192Z,998.0
2018-05-08T11:24:43.574Z,998.0
2018-05-08T11:25:44.975Z,998.0
2018-05-08T11:26:46.516Z,997.8
2018-05-08T11:27:47.756Z,997.9
2018-05-08T11:28:49.171Z,997.8
2018-05-08T11:29:50.563Z,997.8
2018-05-08T11:30:51.990Z,997.7
2018-05-08T11:31:53.395Z,997.7
2018-05-08T11:32:54.783Z,998.0
2018-05-08T11:33:56.184Z,997.6
2018-05-08T11:34:57.577Z,997.6
2018-05-08T11:35:58.961Z,997.7
2018-05-08T11:37:00.350Z,997.8
2018-05-08T11:38:01.737Z,997.8
2018-05-08T11:39:03.143Z,997.8
2018-05-08T11:40:04.519Z,997.7
2018-05-08T11:41:06.170Z,997.9
2018-05-08T11:42:07.645Z,997.8
2018-05-08T11:43:09.033Z,997.8
2018-05-08T11:44:10.417Z,997.8
2018-05-08T11:45:11.796Z,997.6
2018-05-08T11:46:13.186Z,997.6
2018-05-08T11:47:14.579Z,997.6
2018-05-08T11:48:15.978Z,997.6
2018-05-08T11:49:17.372Z,997.6
2018-05-08T11:50:18.763Z,997.5
2018-05-08T11:51:20.299Z,997.6
2018-05-08T11:52:21.681Z,997.7
2018-05-08T11:53:23.091Z,997.5
2018-05-08T11:54:24.480Z,997.7
2018-05-08T11:55:25.858Z,997.5
2018-05-08T11:56:27.244Z,997.3
2018-05-08T11:57:28.649Z,997.4
2018-05-08T11:58:30.038Z,997.4
2018-05-08T11:59:31.414Z,997.3
2018-05-08T12:00:32.807Z,997.5
2018-05-08T12:01:34.193Z,997.4
2018-05-08T12:02:35.621Z,997.4
2018-05-08T12:03:36.973Z,997.5
2018-05-08T12:04:38.417Z,997.5
2018-05-08T12:05:39.840Z,997.5
2018-05-08T12:06:41.222Z,997.4
2018-05-08T12:07:42.619Z,997.4
2018-05-08T12:08:44.013Z,997.5
2018-05-08T12:09:45.394Z,997.3
2018-05-08T12:10:46.783Z,997.3
2018-05-08T12:11:48.168Z,997.4
2018-05-08T12:12:49.597Z,997.3
2018-05-08T12:13:50.963Z,997.3
2018-05-08T12:14:52.387Z,997.2
2018-05-08T12:15:53.743Z,997.4
2018-05-08T12:16:55.197Z,997.3
2018-05-08T12:17:56.593Z,997.3
2018-05-08T12:18:57.983Z,997.4
2018-05-08T12:19:59.414Z,997.2
2018-05-08T12:21:00.810Z,997.2
2018-05-08T12:22:02.190Z,997.1
2018-05-08T12:23:03.580Z,997.2
2018-05-08T12:24:04.965Z,997.2
2018-05-08T12:25:06.395Z,997.3
2018-05-08T12:26:07.770Z,997.2
2018-05-08T12:27:09.199Z,997.1
2018-05-08T12:28:10.658Z,997.1
2018-05-08T12:29:12.045Z,997.0
2018-05-08T12:30:13.426Z,996.9
2018-05-08T12:31:14.951Z,997.2
2018-05-08T12:32:16.351Z,997.1
2018-05-08T12:33:17.738Z,997.1
2018-05-08T12:34:19.146Z,996.9
2018-05-08T12:35:20.552Z,997.0
2018-05-08T12:36:21.957Z,997.2
2018-05-08T12:37:23.344Z,996.8
2018-05-08T12:38:24.744Z,996.9
2018-05-08T12:39:26.129Z,997.1
2018-05-08T12:40:27.526Z,996.9
2018-05-08T12:41:29.087Z,996.9
2018-05-08T12:42:30.473Z,997.1
2018-05-08T12:43:31.870Z,997.0
2018-05-08T12:44:33.259Z,996.9
2018-05-08T12:45:34.654Z,997.0
2018-05-08T12:46:36.171Z,997.0
2018-05-08T12:47:37.564Z,996.9
2018-05-08T12:48:38.991Z,996.8
2018-05-08T12:49:40.881Z,997.0
2018-05-08T12:50:42.270Z,997.0
2018-05-08T12:51:43.668Z,997.0
2018-05-08T12:52:45.054Z,996.8
2018-05-08T12:53:46.450Z,996.9
2018-05-08T12:54:47.832Z,996.8
2018-05-08T12:55:49.220Z,996.8
2018-05-08T12:56:50.606Z,996.9
2018-05-08T12:57:52.036Z,996.8
2018-05-08T12:58:53.532Z,996.8
2018-05-08T12:59:54.982Z,996.9